createdAt,value
2024-02-13T00:08:13.486Z,95251.50
2024-02-13T00:11:32.491Z,95258.31
2024-02-13T00:18:39.275Z,95256.09
2024-02-13T00:25:31.608Z,95251.38
2024-02-13T00:32:09.097Z,95284.13
2024-02-13T00:35:21.882Z,95281.44
2024-02-13T00:38:25.719Z,95281.44
2024-02-13T00:41:36.317Z,95282.53
2024-02-13T00:44:42.856Z,95281.31
2024-02-13T00:47:53.803Z,95296.00
2024-02-13T00:50:58.237Z,95287.00
2024-02-13T00:54:00.887Z,95294.09
2024-02-13T00:57:04.508Z,95291.31
2024-02-13T01:00:11.668Z,95289.69
2024-02-13T01:03:15.150Z,95291.31
2024-02-13T01:06:34.978Z,95307.53
2024-02-13T01:09:37.848Z,95291.97
2024-02-13T01:12:40.978Z,95299.38
2024-02-13T01:15:43.956Z,95302.50
2024-02-13T01:18:46.969Z,95301.28
2024-02-13T01:21:54.024Z,95312.13
2024-02-13T01:28:18.389Z,95303.97
2024-02-13T01:31:24.707Z,95315.94
2024-02-13T01:34:27.850Z,95321.31
2024-02-13T01:37:35.782Z,95325.50
2024-02-13T01:40:38.905Z,95318.63
2024-02-13T01:43:41.838Z,95325.94
2024-02-13T01:46:45.132Z,95337.47
2024-02-13T01:49:48.550Z,95334.78
2024-02-13T01:52:53.994Z,95334.34
2024-02-13T01:55:59.161Z,95340.50
2024-02-13T01:59:04.865Z,95340.50
2024-02-13T02:02:13.161Z,95334.53
2024-02-13T02:05:16.334Z,95350.34
2024-02-13T02:08:22.186Z,95355.72
2024-02-13T02:11:26.758Z,95354.59
2024-02-13T02:14:29.827Z,95365.84
2024-02-13T02:17:32.950Z,95368.97
2024-02-13T02:20:37.022Z,95363.34
2024-02-13T02:23:49.291Z,95371.41
2024-02-13T02:26:53.713Z,95376.78
2024-02-13T02:29:56.437Z,95386.88
2024-02-13T02:32:59.371Z,95385.75
2024-02-13T02:36:02.151Z,95395.44
2024-02-13T02:39:05.951Z,95401.91
2024-02-13T02:42:10.137Z,95387.44
2024-02-13T02:45:12.737Z,95398.31
2024-02-13T02:48:16.848Z,95399.44
2024-02-13T02:51:19.408Z,95408.75
2024-02-13T02:54:22.399Z,95424.22
2024-02-13T02:57:36.146Z,95426.13
2024-02-13T03:00:39.258Z,95428.03
2024-02-13T03:03:42.698Z,95427.91
2024-02-13T03:06:45.692Z,95439.56
2024-02-13T03:09:48.575Z,95439.13
2024-02-13T03:12:52.468Z,95446.06
2024-02-13T03:15:57.507Z,95448.41
2024-02-13T03:19:08.644Z,95445.94
2024-02-13T03:22:14.336Z,95459.06
2024-02-13T03:25:20.951Z,95466.81
2024-02-13T03:28:25.081Z,95468.72
2024-02-13T03:31:27.863Z,95462.41
2024-02-13T03:34:30.629Z,95470.28
2024-02-13T03:37:33.321Z,95469.38
2024-02-13T03:40:35.891Z,95476.66
2024-02-13T03:43:42.867Z,95479.69
2024-02-13T03:46:47.756Z,95494.84
2024-02-13T03:49:50.392Z,95492.34
2024-02-13T03:52:53.314Z,95496.13
2024-02-13T03:55:55.958Z,95509.72
2024-02-13T03:58:59.848Z,95513.97
2024-02-13T04:02:03.312Z,95513.97
2024-02-13T04:05:06.665Z,95511.19
2024-02-13T04:08:09.848Z,95513.88
2024-02-13T04:11:13.013Z,95519.34
2024-02-13T04:14:17.885Z,95526.19
2024-02-13T04:17:23.979Z,95525.22
2024-02-13T04:20:26.765Z,95523.16
2024-02-13T04:23:29.747Z,95534.84
2024-02-13T04:26:36.726Z,95537.53
2024-02-13T04:29:50.188Z,95523.69
2024-02-13T04:33:02.142Z,95540.56
2024-02-13T04:36:14.611Z,95548.31
2024-02-13T04:39:20.501Z,95548.31
2024-02-13T04:42:32.480Z,95556.03
2024-02-13T04:45:40.680Z,95550.19
2024-02-13T04:48:43.592Z,95553.22
2024-02-13T04:51:46.475Z,95564.59
2024-02-13T04:54:49.100Z,95569.19
2024-02-13T04:57:53.244Z,95574.56
2024-02-13T05:01:04.003Z,95579.94
2024-02-13T05:04:24.038Z,95570.16
2024-02-13T05:07:30.626Z,95578.09
2024-02-13T05:10:33.478Z,95588.78
2024-02-13T05:13:39.290Z,95594.16
2024-02-13T05:16:44.875Z,95592.13
2024-02-13T05:19:48.058Z,95599.41
2024-02-13T05:22:50.667Z,95608.75
2024-02-13T05:25:53.261Z,95606.84
2024-02-13T05:28:57.916Z,95612.22
2024-02-13T05:32:01.837Z,95623.78
2024-02-13T05:35:09.271Z,95614.78
2024-02-13T05:38:12.414Z,95627.25
2024-02-13T05:44:42.740Z,95629.78
2024-02-13T05:48:15.651Z,95639.91
2024-02-13T05:51:20.166Z,95641.81
2024-02-13T05:54:54.924Z,95644.50
2024-02-13T06:01:35.034Z,95649.25
2024-02-13T06:04:46.905Z,95657.97
2024-02-13T06:07:52.973Z,95655.56
2024-02-13T06:11:11.149Z,95657.81
2024-02-13T06:14:20.150Z,95658.59
2024-02-13T06:17:25.779Z,95655.91
2024-02-13T06:20:32.968Z,95666.66
2024-02-13T06:23:36.058Z,95666.66
2024-02-13T06:26:40.389Z,95683.94
2024-02-13T06:29:46.127Z,95676.31
2024-02-13T06:32:48.947Z,95690.09
2024-02-13T06:35:52.962Z,95695.63
2024-02-13T06:38:55.755Z,95697.84
2024-02-13T06:42:00.036Z,95709.38
2024-02-13T06:45:04.232Z,95709.72
2024-02-13T06:48:08.517Z,95710.69
2024-02-13T06:54:50.801Z,95711.47
2024-02-13T06:57:54.308Z,95718.91
2024-02-13T07:00:56.966Z,95731.56
2024-02-13T07:03:59.597Z,95729.66
2024-02-13T07:07:32.747Z,95732.03
2024-02-13T07:10:41.461Z,95733.78
2024-02-13T07:13:44.304Z,95737.59
2024-02-13T07:16:47.190Z,95735.69
2024-02-13T07:19:58.888Z,95740.44
2024-02-13T07:23:05.471Z,95741.84
2024-02-13T07:26:12.578Z,95746.94
2024-02-13T07:29:19.207Z,95753.88
2024-02-13T07:32:22.430Z,95756.88
2024-02-13T07:35:26.249Z,95752.16
2024-02-13T07:42:14.550Z,95746.47
2024-02-13T07:45:22.384Z,95757.38
2024-02-13T07:48:25.445Z,95761.78
2024-02-13T07:51:28.254Z,95766.38
2024-02-13T07:54:34.545Z,95770.66
2024-02-13T07:57:57.177Z,95775.69
2024-02-13T08:01:19.287Z,95764.50
2024-02-13T08:04:28.769Z,95786.47
2024-02-13T08:07:32.341Z,95786.94
2024-02-13T08:10:39.359Z,95759.31
2024-02-13T08:13:42.243Z,95781.91
2024-02-13T08:16:45.472Z,95784.25
2024-02-13T08:19:50.962Z,95792.66
2024-02-13T08:22:53.908Z,95788.38
2024-02-13T08:25:57.882Z,95786.16
2024-02-13T08:29:00.512Z,95784.59
2024-02-13T08:32:05.284Z,95784.59
2024-02-13T08:35:13.232Z,95792.50
2024-02-13T08:38:32.206Z,95777.78
2024-02-13T08:41:36.737Z,95795.66
2024-02-13T08:44:42.819Z,95801.50
2024-02-13T08:47:51.222Z,95806.56
2024-02-13T08:51:02.249Z,95810.38
2024-02-13T08:54:07.842Z,95791.56
2024-02-13T08:57:15.343Z,95803.09
2024-02-13T09:00:18.887Z,95818.28
2024-02-13T09:03:21.692Z,95819.88
2024-02-13T09:06:24.536Z,95825.06
2024-02-13T09:09:28.236Z,95813.25
2024-02-13T09:12:34.923Z,95820.34
2024-02-13T09:15:44.735Z,95821.13
2024-02-13T09:18:50.291Z,95821.13
2024-02-13T09:21:54.990Z,95817.81
2024-02-13T09:24:58.961Z,95823.34
2024-02-13T09:28:04.278Z,95819.88
2024-02-13T09:31:06.952Z,95834.25
2024-02-13T09:34:10.866Z,95827.63
2024-02-13T09:37:20.530Z,95837.28
2024-02-13T09:40:29.758Z,95839.34
2024-02-13T09:43:41.746Z,95836.94
2024-02-13T09:46:55.986Z,95838.22
2024-02-13T09:50:03.096Z,95858.00
2024-02-13T09:53:20.667Z,95840.72
2024-02-13T09:56:26.635Z,95846.91
2024-02-13T09:59:31.332Z,95848.16
2024-02-13T10:02:34.464Z,95854.34
2024-02-13T10:05:37.452Z,95847.06
2024-02-13T10:08:51.404Z,95858.94
2024-02-13T10:12:07.944Z,95864.94
2024-02-13T10:15:18.758Z,95859.56
2024-02-13T10:18:21.418Z,95867.31
2024-02-13T10:21:26.954Z,95868.91
2024-02-13T10:24:29.965Z,95865.91
2024-02-13T10:27:32.456Z,95872.53
2024-02-13T10:30:38.009Z,95869.22
2024-02-13T10:33:44.001Z,95866.09
2024-02-13T10:36:47.193Z,95877.47
2024-02-13T10:39:52.830Z,95873.66
2024-02-13T10:43:01.157Z,95873.19
2024-02-13T10:46:13.416Z,95873.97
2024-02-13T10:49:25.849Z,95861.94
2024-02-13T10:52:33.457Z,95865.13
2024-02-13T10:59:44.587Z,95857.34
2024-02-13T11:02:52.829Z,95853.41
2024-02-13T11:05:57.486Z,95854.66
2024-02-13T11:09:20.309Z,95860.84
2024-02-13T11:12:24.876Z,95858.97
2024-02-13T11:15:34.322Z,95851.50
2024-02-13T11:18:50.684Z,95855.00
2024-02-13T11:22:11.455Z,95851.84
2024-02-13T11:25:17.886Z,95852.31
2024-02-13T11:28:21.182Z,95859.25
2024-02-13T11:31:29.296Z,95853.88
2024-02-13T11:34:46.241Z,95858.63
2024-02-13T11:37:50.334Z,95839.47
2024-02-13T11:41:04.140Z,95853.25
2024-02-13T11:44:14.376Z,95850.88
2024-02-13T11:47:20.706Z,95855.47
2024-02-13T11:50:25.532Z,95853.25
2024-02-13T11:53:29.514Z,95856.25
2024-02-13T11:56:32.440Z,95839.47
2024-02-13T11:59:37.787Z,95838.38
2024-02-13T12:02:42.175Z,95852.91
2024-02-13T12:05:47.737Z,95859.09
2024-02-13T12:08:50.619Z,95849.44
2024-02-13T12:11:53.434Z,95854.53
2024-02-13T12:14:56.138Z,95853.69
2024-02-13T12:17:59.940Z,95852.63
2024-02-13T12:21:10.265Z,95848.81
2024-02-13T12:24:13.910Z,95847.72
2024-02-13T12:27:24.036Z,95857.22
2024-02-13T12:30:28.968Z,95849.75
2024-02-13T12:33:33.491Z,95845.66
2024-02-13T12:36:39.700Z,95865.13
2024-02-13T12:39:42.249Z,95866.25
2024-02-13T12:42:48.014Z,95867.03
2024-02-13T12:45:50.632Z,95859.25
2024-02-13T12:48:54.504Z,95868.44
2024-02-13T12:51:59.083Z,95850.91
2024-02-13T12:55:02.659Z,95868.44
2024-02-13T12:58:05.798Z,95862.88
2024-02-13T13:01:11.312Z,95857.06
2024-02-13T13:04:15.497Z,95856.25
2024-02-13T13:07:19.854Z,95848.97
2024-02-13T13:10:26.081Z,95862.59
2024-02-13T13:13:29.661Z,95862.44
2024-02-13T13:16:35.369Z,95860.53
2024-02-13T13:19:38.863Z,95853.25
2024-02-13T13:22:45.260Z,95853.25
2024-02-13T13:25:53.338Z,95851.00
2024-02-13T13:28:56.858Z,95842.31
2024-02-13T13:32:00.903Z,95842.31
2024-02-13T13:35:12.554Z,95850.09
2024-02-13T13:39:03.291Z,95848.03
2024-02-13T13:42:17.786Z,95850.56
2024-02-13T13:45:28.218Z,95859.75
2024-02-13T13:52:13.781Z,95863.56
2024-02-13T13:55:17.408Z,95878.25
2024-02-13T13:58:20.179Z,95862.91
2024-02-13T14:01:22.919Z,95879.81
2024-02-13T14:04:26.440Z,95867.31
2024-02-13T14:07:30.412Z,95877.00
2024-02-13T14:10:36.888Z,95877.63
2024-02-13T14:13:39.930Z,95882.38
2024-02-13T14:16:42.657Z,95873.81
2024-02-13T14:19:45.912Z,95885.19
2024-02-13T14:22:49.923Z,95882.38
2024-02-13T14:25:52.606Z,95888.22
2024-02-13T14:28:56.220Z,95890.28
2024-02-13T14:31:59.551Z,95882.06
2024-02-13T14:35:02.610Z,95884.41
2024-02-13T14:38:09.217Z,95885.53
2024-02-13T14:41:12.271Z,95902.94
2024-02-13T14:44:15.510Z,95890.59
2024-02-13T14:47:20.107Z,95892.19
2024-02-13T14:50:26.661Z,95886.16
2024-02-13T14:53:32.903Z,95883.47
2024-02-13T14:56:35.828Z,95901.69
2024-02-13T14:59:40.142Z,95897.09
2024-02-13T15:02:43.558Z,95900.09
2024-02-13T15:06:03.092Z,95906.72
2024-02-13T15:09:28.616Z,95902.00
2024-02-13T15:12:33.846Z,95902.31
2024-02-13T15:15:38.896Z,95913.22
2024-02-13T15:18:43.214Z,95905.78
2024-02-13T15:21:47.085Z,95901.50
2024-02-13T15:25:04.947Z,95914.00
2024-02-13T15:28:11.294Z,95908.47
2024-02-13T15:31:13.864Z,95905.00
2024-02-13T15:34:17.714Z,95918.59
2024-02-13T15:37:48.817Z,95917.50
2024-02-13T15:41:11.912Z,95914.66
2024-02-13T15:44:40.649Z,95910.22
2024-02-13T15:47:52.496Z,95921.28
2024-02-13T15:50:57.564Z,95923.19
2024-02-13T15:54:01.916Z,95922.25
2024-02-13T15:57:09.208Z,95935.38
2024-02-13T16:00:16.076Z,95931.91
2024-02-13T16:03:21.396Z,95937.44
2024-02-13T16:06:37.585Z,95945.19
2024-02-13T16:13:12.993Z,95949.31
2024-02-13T16:16:17.146Z,95963.41
2024-02-13T16:19:21.019Z,95970.69
2024-02-13T16:22:23.615Z,95966.41
2024-02-13T16:25:31.152Z,95970.84
2024-02-13T16:28:36.877Z,95973.84
2024-02-13T16:31:42.333Z,95976.56
2024-02-13T16:34:45.529Z,95970.69
2024-02-13T16:37:48.356Z,95981.59
2024-02-13T16:40:50.925Z,95977.19
2024-02-13T16:43:54.810Z,95975.72
2024-02-13T16:46:59.974Z,95975.28
2024-02-13T16:50:02.672Z,95993.16
2024-02-13T16:53:06.112Z,95989.50
2024-02-13T16:56:09.580Z,95995.84
2024-02-13T16:59:15.811Z,95980.16
2024-02-13T17:02:18.757Z,95995.38
2024-02-13T17:05:23.716Z,96002.81
2024-02-13T17:08:26.625Z,95995.84
2024-02-13T17:11:29.377Z,95993.78
2024-02-13T17:14:35.426Z,96001.22
2024-02-13T17:17:40.406Z,95999.31
2024-02-13T17:20:44.783Z,96000.91
2024-02-13T17:23:49.153Z,96009.31
2024-02-13T17:26:52.691Z,96004.38
2024-02-13T17:29:58.300Z,96010.59
2024-02-13T17:33:02.875Z,95987.78
2024-02-13T17:36:10.568Z,96008.84
2024-02-13T17:39:13.436Z,96004.88
2024-02-13T17:42:15.914Z,96017.84
2024-02-13T17:45:19.995Z,96011.19
2024-02-13T17:48:22.687Z,95997.59
2024-02-13T17:51:26.286Z,96005.50
2024-02-13T17:54:32.096Z,96009.31
2024-02-13T17:57:35.427Z,95998.06
2024-02-13T18:00:42.338Z,96008.03
2024-02-13T18:03:44.952Z,96004.38
2024-02-13T18:06:52.595Z,96006.94
2024-02-13T18:09:55.499Z,96020.84
2024-02-13T18:12:59.928Z,96011.38
2024-02-13T18:16:05.131Z,96017.22
2024-02-13T18:19:09.660Z,96024.66
2024-02-13T18:22:12.430Z,96016.25
2024-02-13T18:25:18.392Z,96011.53
2024-02-13T18:28:21.300Z,96012.00
2024-02-13T18:31:25.308Z,96017.38
2024-02-13T18:34:28.002Z,96011.19
2024-02-13T18:37:30.945Z,96017.03
2024-02-13T18:40:37.389Z,96025.13
2024-02-13T18:43:41.771Z,96018.78
2024-02-13T18:46:46.711Z,96024.31
2024-02-13T18:49:50.038Z,96005.50
2024-02-13T18:52:52.722Z,96017.22
2024-02-13T18:55:55.927Z,96023.06
2024-02-13T18:59:00.661Z,96015.31
2024-02-13T19:02:04.943Z,96010.09
2024-02-13T19:05:08.605Z,96022.75
2024-02-13T19:08:14.095Z,96019.75
2024-02-13T19:11:17.080Z,96015.78
2024-02-13T19:14:21.477Z,96013.28
2024-02-13T19:17:25.623Z,96013.41
2024-02-13T19:20:28.194Z,96001.22
2024-02-13T19:23:31.525Z,96021.63
2024-02-13T19:26:34.964Z,96018.50
2024-02-13T19:29:39.075Z,96029.41
2024-02-13T19:32:43.746Z,96040.19
2024-02-13T19:35:46.853Z,96035.25
2024-02-13T19:38:51.637Z,96035.25
2024-02-13T19:41:54.902Z,96050.78
2024-02-13T19:44:57.637Z,96046.19
2024-02-13T19:48:18.919Z,96047.44
2024-02-13T19:51:23.967Z,96042.38
2024-02-13T19:54:30.927Z,96034.63
2024-02-13T19:57:35.949Z,96030.81
2024-02-13T20:00:38.682Z,96040.00
2024-02-13T20:03:49.687Z,96038.56
2024-02-13T20:06:52.724Z,96038.44
2024-02-13T20:09:55.873Z,96050.78
2024-02-13T20:12:59.277Z,96044.75
2024-02-13T20:16:01.894Z,96050.00
2024-02-13T20:19:06.151Z,96044.59
2024-02-13T20:22:11.160Z,96045.56
2024-02-13T20:39:20.890Z,96044.75
2024-02-13T20:42:24.938Z,96046.97
2024-02-13T20:45:28.128Z,96033.84
2024-02-13T20:48:31.436Z,96037.63
2024-02-13T20:51:34.811Z,96047.44
2024-02-13T20:54:39.087Z,96033.84
2024-02-13T20:57:43.605Z,96030.97
2024-02-13T21:00:46.303Z,96046.97
2024-02-13T21:03:49.262Z,96044.75
2024-02-13T21:06:51.762Z,96044.75
2024-02-13T21:09:55.646Z,96048.25
2024-02-13T21:12:58.195Z,96043.94
2024-02-13T21:16:01.244Z,96037.31
2024-02-13T21:19:04.569Z,96033.34
2024-02-13T21:22:26.590Z,96039.22
2024-02-13T21:25:30.944Z,96044.59
2024-02-13T21:28:34.309Z,96030.97
2024-02-13T21:31:37.717Z,96041.13
2024-02-13T21:34:40.429Z,96029.88
2024-02-13T21:37:43.747Z,96026.72
2024-02-13T21:40:47.706Z,96027.19
2024-02-13T21:43:50.623Z,96025.13
2024-02-13T21:46:56.367Z,96023.38
2024-02-13T21:49:59.154Z,96019.44
2024-02-13T21:53:01.868Z,96015.47
2024-02-13T21:56:06.573Z,96020.84
2024-02-13T21:59:09.494Z,96017.81
2024-02-13T22:02:12.044Z,96020.06
2024-02-13T22:08:41.020Z,96028.75
2024-02-13T22:11:45.113Z,96023.22
2024-02-13T22:14:47.829Z,96025.28
2024-02-13T22:17:50.751Z,96020.06
2024-02-13T22:20:55.399Z,96024.66
2024-02-13T22:24:10.022Z,96021.63
2024-02-13T22:27:15.199Z,96024.81
2024-02-13T22:30:21.444Z,96019.59
2024-02-13T22:33:24.466Z,96016.56
2024-02-13T22:36:27.423Z,96024.03
2024-02-13T22:39:29.920Z,96033.19
2024-02-13T22:42:34.150Z,96037.47
2024-02-13T22:45:50.971Z,96030.19
2024-02-13T22:48:53.811Z,96034.63
2024-02-13T22:51:56.730Z,96035.09
2024-02-13T22:54:59.712Z,96031.28
2024-02-13T22:58:17.841Z,96035.72
2024-02-13T23:08:16.487Z,96026.22
2024-02-13T23:11:19.350Z,96023.38
2024-02-13T23:14:22.240Z,96019.59
2024-02-13T23:17:25.574Z,96020.38
2024-02-13T23:20:30.426Z,96019.28
2024-02-13T23:23:34.905Z,96010.56
2024-02-13T23:26:41.420Z,96011.81
2024-02-13T23:29:45.850Z,96016.09
2024-02-13T23:32:49.533Z,96015.78
2024-02-13T23:35:52.810Z,96020.38
2024-02-13T23:38:56.714Z,96014.03
2024-02-13T23:42:04.096Z,96010.25
2024-02-13T23:45:08.456Z,95999.31
2024-02-13T23:48:11.365Z,96012.94
2024-02-13T23:51:14.840Z,96014.34
2024-02-13T23:54:20.416Z,96013.56
2024-02-13T23:57:23.398Z,96006.75
